Time;durP1;ratioP1;P1;durP2;ratioP2;P2;SDS_P1;SDS_P2;PMS_P1;PMS_P2;Temp;Humidity;BMP_temperature;BMP_pressure;BME280_temperature;BME280_humidity;BME280_pressure;Samples;Min_cycle;Max_cycle;Signal;HPM_P1;HPM_P2
2023/01/19 00:53:08;;;;;;;34.03;25.67;;;12.30;99.80;;;;;;4590251;19;20054;-28
2023/01/19 00:54:40;;;;;;;36.55;26.27;;;12.20;99.80;;;;;;4593124;19;20429;-30
2023/01/19 00:56:11;;;;;;;34.28;25.65;;;12.20;99.80;;;;;;4593787;19;20048;-30
2023/01/19 00:57:43;;;;;;;34.67;25.03;;;12.30;99.80;;;;;;4592810;19;20010;-31
2023/01/19 00:59:16;;;;;;;33.43;24.57;;;12.30;99.80;;;;;;4593146;19;20780;-30
2023/01/19 01:00:47;;;;;;;35.30;25.45;;;12.30;99.80;;;;;;4591996;19;20048;-30
2023/01/19 01:02:18;;;;;;;34.80;23.27;;;12.30;99.70;;;;;;4592501;19;20103;-30
2023/01/19 01:03:52;;;;;;;33.87;24.67;;;12.30;99.70;;;;;;4591708;19;20007;-30
2023/01/19 01:05:25;;;;;;;34.67;25.07;;;12.30;99.70;;;;;;4593393;19;20014;-30
2023/01/19 01:06:56;;;;;;;38.30;27.13;;;12.30;99.70;;;;;;4593413;19;20003;-32
2023/01/19 01:08:27;;;;;;;35.35;25.75;;;12.30;99.70;;;;;;4592742;19;20007;-33
2023/01/19 01:09:58;;;;;;;;;;;12.30;99.70;;;;;;4594171;19;20010;-30
2023/01/19 01:11:30;;;;;;;39.10;26.75;;;12.40;99.70;;;;;;4593636;19;19911;-33
2023/01/19 01:13:01;;;;;;;39.03;27.58;;;12.40;99.60;;;;;;4591931;19;20002;-33
2023/01/19 01:14:34;;;;;;;39.83;28.53;;;12.40;99.50;;;;;;4592371;19;20066;-32
2023/01/19 01:16:08;;;;;;;36.47;28.08;;;12.40;99.50;;;;;;4592753;19;20011;-31
2023/01/19 01:17:46;;;;;;;37.33;27.67;;;12.40;99.50;;;;;;4591496;19;20022;-32
2023/01/19 01:19:17;;;;;;;41.27;29.37;;;12.40;99.40;;;;;;4591545;19;20014;-32
2023/01/19 01:20:50;;;;;;;41.03;28.53;;;12.40;99.40;;;;;;4591725;19;20014;-32
2023/01/19 01:22:21;;;;;;;38.97;28.15;;;12.40;99.40;;;;;;4591974;19;20018;-33
2023/01/19 01:23:52;;;;;;;37.65;27.42;;;12.40;99.50;;;;;;4590870;19;20014;-31
2023/01/19 01:25:25;;;;;;;40.10;27.20;;;12.40;99.50;;;;;;4592110;19;20018;-30
2023/01/19 01:26:57;;;;;;;38.37;27.77;;;12.40;99.50;;;;;;4590549;19;20449;-30
2023/01/19 01:28:28;;;;;;;39.47;28.02;;;12.40;99.50;;;;;;4591192;19;20021;-31
2023/01/19 01:30:00;;;;;;;36.13;27.53;;;12.40;99.50;;;;;;4590712;19;20017;-32
2023/01/19 01:31:31;;;;;;;42.05;27.65;;;12.40;99.40;;;;;;4591689;19;20472;-30
2023/01/19 01:33:04;;;;;;;44.43;30.43;;;12.30;99.30;;;;;;4591523;19;20011;-32
2023/01/19 01:34:36;;;;;;;43.38;28.80;;;12.40;99.30;;;;;;4591831;19;20014;-29
2023/01/19 01:36:08;;;;;;;44.17;30.85;;;12.30;99.30;;;;;;4591797;19;20071;-29
2023/01/19 01:37:41;;;;;;;43.53;30.53;;;12.40;99.30;;;;;;4591441;19;20042;-31
2023/01/19 01:39:13;;;;;;;40.50;29.83;;;12.30;99.30;;;;;;4591356;19;20015;-31
2023/01/19 01:40:44;;;;;;;48.95;31.67;;;12.30;99.30;;;;;;4591804;19;20014;-32
2023/01/19 01:42:18;;;;;;;41.83;31.00;;;12.30;99.30;;;;;;4591466;19;20535;-33
2023/01/19 01:43:53;;;;;;;40.17;29.80;;;12.30;99.60;;;;;;4590359;19;20011;-33
2023/01/19 01:45:31;;;;;;;39.70;29.90;;;12.40;99.40;;;;;;4590151;19;20019;-29
2023/01/19 01:47:03;;;;;;;46.17;31.83;;;12.30;99.40;;;;;;4591209;19;20070;-29
2023/01/19 01:48:35;;;;;;;42.70;29.55;;;12.40;99.50;;;;;;4591674;19;20477;-31
2023/01/19 01:50:13;;;;;;;42.72;29.40;;;12.30;99.50;;;;;;4590035;19;20014;-31
2023/01/19 01:53:38;;;;;;;41.10;29.57;;;12.40;99.50;;;;;;4590591;19;20032;-31
2023/01/19 01:55:09;;;;;;;41.70;29.92;;;12.30;99.50;;;;;;4590112;19;20471;-32
2023/01/19 01:56:48;;;;;;;42.47;30.10;;;12.30;99.50;;;;;;4590267;19;20006;-31
2023/01/19 01:58:19;;;;;;;42.87;28.80;;;12.40;99.60;;;;;;4589968;19;20015;-30
2023/01/19 01:59:51;;;;;;;41.83;28.50;;;12.30;99.50;;;;;;4589809;19;20354;-30
2023/01/19 02:03:13;;;;;;;36.57;26.90;;;12.30;99.50;;;;;;4590910;19;20037;-32
2023/01/19 02:04:56;;;;;;;38.15;27.13;;;12.30;99.50;;;;;;4589838;19;20429;-32
2023/01/19 02:06:27;;;;;;;38.33;27.00;;;12.30;99.50;;;;;;4590862;19;20048;-30
2023/01/19 02:13:42;;;;;;;43.07;30.63;;;12.30;99.50;;;;;;4588693;19;20081;-31
2023/01/19 02:15:16;;;;;;;40.30;29.47;;;12.30;99.60;;;;;;4588666;19;20142;-31
2023/01/19 02:16:49;;;;;;;44.10;30.27;;;12.30;99.60;;;;;;4588561;19;20081;-29
2023/01/19 02:18:23;;;;;;;43.00;29.70;;;12.30;99.60;;;;;;4588287;19;20026;-31
2023/01/19 02:19:56;;;;;;;43.43;29.67;;;12.30;99.60;;;;;;4588375;19;20043;-32
2023/01/19 02:21:53;;;;;;;38.78;28.50;;;12.30;99.60;;;;;;4588176;19;20514;-32
2023/01/19 02:23:48;;;;;;;41.77;28.60;;;12.30;99.50;;;;;;4587677;19;20073;-30
2023/01/19 02:25:21;;;;;;;37.73;27.10;;;12.40;99.50;;;;;;4588453;19;20085;-31
2023/01/19 02:26:54;;;;;;;37.63;27.77;;;12.40;99.40;;;;;;4588618;19;20049;-30
2023/01/19 02:28:25;;;;;;;38.35;27.58;;;12.40;99.40;;;;;;4588055;19;20007;-31
2023/01/19 02:29:56;;;;;;;41.60;29.83;;;12.40;99.30;;;;;;4588135;19;20018;-30
2023/01/19 02:31:28;;;;;;;;;;;12.40;99.30;;;;;;4589044;19;20506;-30
2023/01/19 02:32:59;;;;;;;40.85;28.67;;;12.40;99.30;;;;;;4588322;19;19926;-30
2023/01/19 02:34:31;;;;;;;40.75;29.65;;;12.40;99.30;;;;;;4588212;19;20334;-29
2023/01/19 02:36:02;;;;;;;40.53;29.55;;;12.40;99.40;;;;;;4587890;19;20022;-30
2023/01/19 02:37:36;;;;;;;40.90;29.57;;;12.40;99.40;;;;;;4587955;19;20093;-31
2023/01/19 02:39:07;;;;;;;41.37;30.80;;;12.50;99.50;;;;;;4588171;19;20022;-29
2023/01/19 02:40:40;;;;;;;42.27;29.80;;;12.50;99.50;;;;;;4588270;19;20100;-31
2023/01/19 02:42:15;;;;;;;44.40;29.73;;;12.50;99.50;;;;;;4587945;19;20011;-30
2023/01/19 02:43:48;;;;;;;43.37;29.70;;;12.50;99.50;;;;;;4587184;19;20449;-30
2023/01/19 02:45:21;;;;;;;37.38;28.77;;;12.50;99.50;;;;;;4588824;19;20131;-31
2023/01/19 02:46:54;;;;;;;41.57;30.13;;;12.50;99.60;;;;;;4589055;19;20015;-31
2023/01/19 02:48:25;;;;;;;41.83;29.10;;;12.50;99.50;;;;;;4588890;19;20014;-29
2023/01/19 02:49:58;;;;;;;45.77;29.93;;;12.40;99.50;;;;;;4589672;19;20050;-31
2023/01/19 02:51:31;;;;;;;40.07;29.60;;;12.40;99.50;;;;;;4589092;19;20018;-32
2023/01/19 04:52:16;;;;;;;42.63;29.53;;;12.40;99.20;;;;;;4589925;19;20010;-29
2023/01/19 04:53:50;;;;;;;44.53;31.97;;;12.50;99.10;;;;;;4593510;19;20011;-29
2023/01/19 04:55:22;;;;;;;42.73;31.03;;;12.60;99.00;;;;;;4592257;19;20014;-29
2023/01/19 04:56:53;;;;;;;39.72;30.60;;;12.60;99.00;;;;;;4590880;19;20018;-32
2023/01/19 04:58:25;;;;;;;;;;;12.70;99.00;;;;;;4591815;19;20018;-31
2023/01/19 04:59:57;;;;;;;45.07;33.03;;;12.70;99.00;;;;;;4589480;19;19926;-32
2023/01/19 05:01:28;;;;;;;43.40;32.63;;;12.70;99.00;;;;;;4589459;19;20018;-32
2023/01/19 05:03:00;;;;;;;;;;;12.70;99.00;;;;;;4591282;19;20018;-29
2023/01/19 05:04:31;;;;;;;43.30;30.73;;;12.70;99.00;;;;;;4590946;19;19919;-32
2023/01/19 05:06:03;;;;;;;43.37;34.07;;;12.80;99.10;;;;;;4586725;19;20015;-31
2023/01/19 05:07:35;;;;;;;43.37;33.37;;;12.70;99.00;;;;;;4590743;19;20022;-31
2023/01/19 05:09:07;;;;;;;49.25;35.33;;;12.80;99.10;;;;;;4590907;19;20030;-30
2023/01/19 05:10:40;;;;;;;48.23;35.67;;;12.70;99.10;;;;;;4591006;19;20476;-30
2023/01/19 05:12:11;;;;;;;;;;;12.70;99.00;;;;;;4594199;19;20048;-30
2023/01/19 05:13:43;;;;;;;44.43;35.03;;;12.70;99.10;;;;;;4591983;19;19926;-30
2023/01/19 05:15:14;;;;;;;44.40;33.10;;;12.70;99.10;;;;;;4593631;19;20341;-29
2023/01/19 05:16:47;;;;;;;45.53;34.83;;;12.70;99.10;;;;;;4592599;19;20039;-29
2023/01/19 05:18:18;;;;;;;43.17;32.13;;;12.60;99.10;;;;;;4593147;19;20019;-30
2023/01/19 05:19:50;;;;;;;41.47;32.53;;;12.60;99.00;;;;;;4592589;19;20014;-30
2023/01/19 05:21:23;;;;;;;40.93;31.53;;;12.70;99.00;;;;;;4591473;19;20471;-29
2023/01/19 05:22:54;;;;;;;44.17;32.33;;;12.60;99.20;;;;;;4591744;19;20037;-33
2023/01/19 05:24:25;;;;;;;41.75;31.52;;;12.70;99.00;;;;;;4590597;19;20010;-31
2023/01/19 05:25:59;;;;;;;44.33;32.40;;;12.70;98.90;;;;;;4591839;19;20015;-30
2023/01/19 05:27:30;;;;;;;44.83;32.43;;;12.70;99.00;;;;;;4592468;19;20017;-30
2023/01/19 05:29:20;;;;;;;48.00;32.78;;;12.70;99.00;;;;;;4591950;19;20015;-29
2023/01/19 05:30:53;;;;;;;46.60;33.97;;;12.70;99.00;;;;;;4592489;19;20066;-30
2023/01/19 05:32:24;;;;;;;44.73;32.33;;;12.70;99.10;;;;;;4591882;19;20019;-29
2023/01/19 05:33:55;;;;;;;44.22;33.92;;;12.60;99.10;;;;;;4591986;19;20017;-28
2023/01/19 05:35:27;;;;;;;;;;;12.60;99.10;;;;;;4592274;19;20026;-31
2023/01/19 05:36:58;;;;;;;51.13;34.13;;;12.60;99.10;;;;;;4592897;19;19974;-28
2023/01/19 05:38:30;;;;;;;47.83;33.57;;;12.70;99.10;;;;;;4591435;19;20120;-29
2023/01/19 05:40:02;;;;;;;45.77;32.63;;;12.70;99.10;;;;;;4590381;19;20014;-29
2023/01/19 05:41:35;;;;;;;46.00;33.07;;;12.70;99.00;;;;;;4591253;19;20484;-30
2023/01/19 05:43:06;;;;;;;44.58;32.22;;;12.80;98.90;;;;;;4589330;19;20045;-30
2023/01/19 05:44:38;;;;;;;46.83;36.00;;;12.80;98.90;;;;;;4592712;19;20029;-30
2023/01/19 05:46:09;;;;;;;63.25;52.75;;;12.90;98.90;;;;;;4592501;19;20116;-29
2023/01/19 05:47:40;;;;;;;89.82;80.07;;;12.90;98.90;;;;;;4591522;19;20010;-29
2023/01/19 05:49:12;;;;;;;;;;;12.90;98.90;;;;;;4592470;19;20022;-29
2023/01/19 05:50:43;;;;;;;70.57;54.83;;;13.00;98.80;;;;;;4591140;19;20018;-31
2023/01/19 05:52:14;;;;;;;69.65;50.67;;;13.00;98.80;;;;;;4590575;19;20018;-30
2023/01/19 05:53:46;;;;;;;59.38;43.60;;;13.00;98.80;;;;;;4589234;19;20038;-29
2023/01/19 05:55:17;;;;;;;50.38;39.40;;;13.00;98.80;;;;;;4592036;19;20575;-29
2023/01/19 05:56:49;;;;;;;54.87;42.00;;;13.00;98.80;;;;;;4590836;19;20030;-28
2023/01/19 05:58:21;;;;;;;52.33;39.72;;;13.00;98.80;;;;;;4593053;19;20018;-29
2023/01/19 05:59:53;;;;;;;54.15;39.78;;;13.00;98.80;;;;;;4592218;19;20021;-28
2023/01/19 06:01:25;;;;;;;55.10;41.13;;;13.00;98.80;;;;;;4592274;19;20014;-29
2023/01/19 06:02:57;;;;;;;;;;;13.00;98.80;;;;;;4592195;19;20042;-31
2023/01/19 06:04:28;;;;;;;53.60;40.75;;;13.00;98.80;;;;;;4590681;19;19960;-30
2023/01/19 06:06:00;;;;;;;58.85;41.65;;;13.10;98.80;;;;;;4591638;19;20011;-31
2023/01/19 06:07:32;;;;;;;55.08;38.45;;;13.00;98.90;;;;;;4590448;19;20044;-30
2023/01/19 06:09:04;;;;;;;55.83;39.43;;;13.00;98.90;;;;;;4589408;19;20021;-29
2023/01/19 06:10:36;;;;;;;51.23;38.33;;;13.00;98.90;;;;;;4591823;19;20447;-30
2023/01/19 06:12:08;;;;;;;55.83;40.22;;;13.00;98.90;;;;;;4591125;19;20018;-30
2023/01/19 06:13:39;;;;;;;55.25;40.55;;;13.00;99.00;;;;;;4590597;19;20007;-29
2023/01/19 06:15:11;;;;;;;56.72;42.58;;;12.90;99.20;;;;;;4591223;19;20535;-30
2023/01/19 06:16:44;;;;;;;55.37;41.77;;;12.90;99.00;;;;;;4591190;19;20022;-31
2023/01/19 06:18:15;;;;;;;57.53;41.28;;;12.90;99.10;;;;;;4591952;19;20014;-29
2023/01/19 06:19:47;;;;;;;61.60;45.17;;;12.90;99.10;;;;;;4590241;19;20429;-30
2023/01/19 06:21:19;;;;;;;66.93;53.90;;;12.90;99.10;;;;;;4589516;19;20548;-30
2023/01/19 06:22:50;;;;;;;72.95;53.60;;;12.80;99.20;;;;;;4589582;19;20350;-30
2023/01/19 06:24:22;;;;;;;73.00;53.63;;;12.90;99.30;;;;;;4589672;19;20006;-31
2023/01/19 06:25:54;;;;;;;74.03;54.57;;;12.80;99.30;;;;;;4590713;19;20009;-30
2023/01/19 06:27:25;;;;;;;78.88;54.88;;;12.80;99.30;;;;;;4588386;19;20014;-31
2023/01/19 06:28:56;;;;;;;69.43;52.63;;;12.80;99.40;;;;;;4591342;19;20025;-32
2023/01/19 06:30:28;;;;;;;73.82;53.97;;;12.80;99.40;;;;;;4591396;19;20345;-30
2023/01/19 06:31:59;;;;;;;69.43;49.72;;;12.80;99.40;;;;;;4592102;19;20509;-32
2023/01/19 06:33:31;;;;;;;70.97;51.10;;;12.80;99.40;;;;;;4590851;19;20102;-30
2023/01/19 06:35:02;;;;;;;73.05;51.53;;;12.70;99.40;;;;;;4591557;19;20039;-31
2023/01/19 06:36:33;;;;;;;65.55;46.85;;;12.80;99.50;;;;;;4590737;19;20032;-31
2023/01/19 06:38:05;;;;;;;63.53;47.50;;;12.70;99.50;;;;;;4588883;19;20020;-30
2023/01/19 06:39:39;;;;;;;62.38;44.67;;;12.70;99.40;;;;;;4591186;19;20027;-29
2023/01/19 06:41:10;;;;;;;62.83;45.43;;;12.70;99.50;;;;;;4589057;19;20488;-32
2023/01/19 06:42:41;;;;;;;61.85;46.20;;;12.70;99.50;;;;;;4590847;19;20038;-30
2023/01/19 06:44:13;;;;;;;66.85;45.55;;;12.70;99.50;;;;;;4589278;19;20010;-29
2023/01/19 06:45:44;;;;;;;66.88;43.85;;;12.70;99.60;;;;;;4589852;19;20520;-30
2023/01/19 06:47:17;;;;;;;63.03;44.23;;;12.70;99.60;;;;;;4590142;19;20007;-29
2023/01/19 06:48:49;;;;;;;69.72;46.65;;;12.70;99.60;;;;;;4590649;19;20014;-31
2023/01/19 06:50:20;;;;;;;64.47;46.38;;;12.70;99.60;;;;;;4590632;19;20003;-28
2023/01/19 06:51:52;;;;;;;68.00;50.33;;;12.70;99.60;;;;;;4590034;19;20018;-28
2023/01/19 06:53:26;;;;;;;67.60;47.53;;;12.70;99.60;;;;;;4591548;19;20110;-29
2023/01/19 06:54:57;;;;;;;63.13;46.73;;;12.70;99.70;;;;;;4588942;19;20014;-29
2023/01/19 06:56:29;;;;;;;65.50;46.28;;;12.80;99.80;;;;;;4590471;19;19994;-28
2023/01/19 06:58:02;;;;;;;69.63;49.57;;;12.90;99.50;;;;;;4590510;19;20021;-29
2023/01/19 06:59:33;;;;;;;66.28;46.75;;;12.80;99.60;;;;;;4589517;19;20091;-28
2023/01/19 07:01:05;;;;;;;66.35;47.40;;;12.80;99.60;;;;;;4589701;19;20007;-28
2023/01/19 07:02:41;;;;;;;65.90;47.93;;;12.70;99.70;;;;;;4589371;19;20010;-28
2023/01/19 07:04:16;;;;;;;60.60;44.43;;;12.70;99.70;;;;;;4589558;19;20007;-29
2023/01/19 07:05:52;;;;;;;60.63;45.20;;;12.70;99.70;;;;;;4590928;19;20006;-28
2023/01/19 07:07:24;;;;;;;59.17;45.63;;;12.70;99.80;;;;;;4589416;19;20078;-28
2023/01/19 07:08:56;;;;;;;66.45;46.40;;;12.70;99.80;;;;;;4589918;19;20042;-28
2023/01/19 07:10:29;;;;;;;62.17;48.97;;;12.70;99.80;;;;;;4590604;19;20013;-28
2023/01/19 07:12:01;;;;;;;66.50;51.27;;;12.60;99.80;;;;;;4591207;19;20035;-29
2023/01/19 07:13:35;;;;;;;67.13;52.67;;;12.60;99.80;;;;;;4590397;19;20014;-29
2023/01/19 07:15:08;;;;;;;68.83;54.37;;;12.60;99.80;;;;;;4590284;19;20006;-28
2023/01/19 07:16:40;;;;;;;71.30;53.37;;;12.60;99.80;;;;;;4590355;19;20031;-28
2023/01/19 07:18:12;;;;;;;82.00;61.23;;;12.60;99.80;;;;;;4590578;19;20022;-29
2023/01/19 07:19:45;;;;;;;76.05;55.35;;;12.60;99.90;;;;;;4590703;19;20002;-29
2023/01/19 07:21:18;;;;;;;72.93;52.90;;;12.60;99.90;;;;;;4588922;19;20045;-28
2023/01/19 07:22:57;;;;;;;71.17;48.43;;;12.60;99.90;;;;;;4590162;19;20011;-28
2023/01/19 07:24:36;;;;;;;64.57;47.03;;;12.60;99.90;;;;;;4589714;19;20038;-29
2023/01/19 07:26:09;;;;;;;62.33;44.43;;;12.60;99.90;;;;;;4590669;19;20480;-28
2023/01/19 07:27:40;;;;;;;63.83;45.28;;;12.60;99.90;;;;;;4590176;19;20066;-28
2023/01/19 07:29:13;;;;;;;59.17;44.90;;;12.70;99.90;;;;;;4590214;19;20021;-29
2023/01/19 07:30:47;;;;;;;66.33;45.17;;;12.60;99.90;;;;;;4588556;19;20027;-29
2023/01/19 07:32:20;;;;;;;70.13;47.27;;;12.60;99.90;;;;;;4588560;19;20027;-28
2023/01/19 07:33:52;;;;;;;72.00;48.50;;;12.60;99.90;;;;;;4589172;19;20554;-28
2023/01/19 07:35:24;;;;;;;67.73;45.83;;;12.60;99.90;;;;;;4590438;19;20011;-28
2023/01/19 07:36:56;;;;;;;67.43;46.53;;;12.60;99.90;;;;;;4590564;19;20011;-29
2023/01/19 07:38:30;;;;;;;66.50;47.03;;;12.60;99.90;;;;;;4588777;19;20039;-29
2023/01/19 07:40:03;;;;;;;70.33;48.23;;;12.60;99.90;;;;;;4589223;19;20476;-29
2023/01/19 07:41:34;;;;;;;71.60;49.08;;;12.50;99.90;;;;;;4589837;19;20014;-29
2023/01/19 07:43:06;;;;;;;76.83;50.47;;;12.50;99.90;;;;;;4590408;19;20006;-28
2023/01/19 07:44:37;;;;;;;73.60;49.17;;;12.60;99.90;;;;;;4588778;19;20018;-28
2023/01/19 07:46:10;;;;;;;77.33;50.97;;;12.50;99.90;;;;;;4589585;19;20074;-28
2023/01/19 07:47:43;;;;;;;80.10;51.23;;;12.50;99.90;;;;;;4589362;19;20496;-28
2023/01/19 07:49:17;;;;;;;72.97;49.90;;;12.50;99.90;;;;;;4590036;19;20027;-28
2023/01/19 07:50:48;;;;;;;76.15;50.90;;;12.50;99.90;;;;;;4590316;19;20066;-28
2023/01/19 07:52:21;;;;;;;73.67;51.83;;;12.50;99.90;;;;;;4588796;19;20022;-29
2023/01/19 07:53:54;;;;;;;71.30;49.47;;;12.50;99.90;;;;;;4589919;19;20013;-29
2023/01/19 07:55:26;;;;;;;71.37;48.23;;;12.50;99.90;;;;;;4589683;19;20030;-28
2023/01/19 07:56:59;;;;;;;72.97;50.67;;;12.50;99.90;;;;;;4590304;19;20481;-29
2023/01/19 07:58:31;;;;;;;76.70;52.77;;;12.50;99.90;;;;;;4589592;19;20006;-28
2023/01/19 08:00:03;;;;;;;75.20;52.20;;;12.50;99.90;;;;;;4589797;19;20010;-28
2023/01/19 08:01:36;;;;;;;77.27;52.83;;;12.50;99.90;;;;;;4588270;19;20075;-28
2023/01/19 08:03:08;;;;;;;75.17;52.50;;;12.50;99.90;;;;;;4592937;19;20405;-28
2023/01/19 08:04:40;;;;;;;69.53;50.40;;;12.50;99.90;;;;;;4592539;19;20022;-29
2023/01/19 08:06:21;;;;;;;74.47;50.77;;;12.50;99.90;;;;;;4593724;19;20422;-29
2023/01/19 08:07:55;;;;;;;73.17;51.80;;;12.50;99.90;;;;;;4592909;19;20014;-29
2023/01/19 08:09:26;;;;;;;69.47;49.70;;;12.50;99.90;;;;;;4593572;19;20384;-29
2023/01/19 08:10:58;;;;;;;78.17;52.43;;;12.50;99.90;;;;;;4594256;19;20011;-29
2023/01/19 08:12:30;;;;;;;;;;;12.50;99.90;;;;;;4594207;19;20022;-28
2023/01/19 08:14:01;;;;;;;81.47;55.33;;;12.50;99.90;;;;;;4595438;19;19915;-28
2023/01/19 08:15:32;;;;;;;84.13;57.90;;;12.50;99.90;;;;;;4592441;19;20011;-29
2023/01/19 08:17:04;;;;;;;86.07;61.65;;;12.50;99.90;;;;;;4592460;19;20022;-29
2023/01/19 08:19:15;;;;;;;85.43;59.57;;;12.50;99.90;;;;;;4593304;19;20015;-30
2023/01/19 08:20:46;;;;;;;87.67;61.73;;;12.50;99.90;;;;;;4593288;19;20010;-29
2023/01/19 08:22:17;;;;;;;80.47;56.58;;;12.50;99.90;;;;;;4591411;19;20010;-29
2023/01/19 08:23:55;;;;;;;84.50;61.92;;;12.50;99.90;;;;;;4591714;19;20015;-29
2023/01/19 08:25:44;;;;;;;77.73;57.47;;;12.50;99.90;;;;;;4594137;19;20014;-28
2023/01/19 08:27:15;;;;;;;82.73;58.83;;;12.50;99.90;;;;;;4592775;19;20016;-29
2023/01/19 08:28:46;;;;;;;82.22;55.78;;;12.50;99.90;;;;;;4593768;19;20011;-29
2023/01/19 08:30:18;;;;;;;81.45;57.20;;;12.50;99.90;;;;;;4594146;19;20020;-29
2023/01/19 08:32:05;;;;;;;89.80;63.20;;;12.60;99.90;;;;;;4593444;19;20002;-29
2023/01/19 08:33:37;;;;;;;95.97;63.10;;;12.60;99.90;;;;;;4591111;19;20412;-30
2023/01/19 08:35:09;;;;;;;82.10;55.45;;;12.60;99.90;;;;;;4591736;19;20018;-29
2023/01/19 08:36:40;;;;;;;94.00;59.90;;;12.60;99.90;;;;;;4591408;19;20003;-29
2023/01/19 08:38:12;;;;;;;89.38;63.97;;;12.60;99.90;;;;;;4592605;19;20014;-29
2023/01/19 08:39:43;;;;;;;87.13;60.50;;;12.60;99.90;;;;;;4593136;19;20014;-29
2023/01/19 08:41:15;;;;;;;91.90;60.10;;;12.60;99.90;;;;;;4591833;19;20460;-29
2023/01/19 08:42:47;;;;;;;81.03;57.05;;;12.70;99.90;;;;;;4592081;19;20014;-30
2023/01/19 08:44:19;;;;;;;89.85;61.45;;;12.60;99.90;;;;;;4590485;19;20014;-30
2023/01/19 08:45:51;;;;;;;87.18;60.45;;;12.60;99.90;;;;;;4592671;19;20010;-30
2023/01/19 08:47:22;;;;;;;;;;;12.60;99.90;;;;;;4594060;19;20084;-29
2023/01/19 08:48:53;;;;;;;94.53;64.90;;;12.60;99.90;;;;;;4592937;19;19948;-30
2023/01/19 08:50:26;;;;;;;90.03;63.77;;;12.60;99.90;;;;;;4593259;19;20007;-30
2023/01/19 08:51:57;;;;;;;87.43;61.27;;;12.60;99.90;;;;;;4589848;19;20052;-30
2023/01/19 08:53:29;;;;;;;86.30;58.70;;;12.60;99.90;;;;;;4593108;19;20010;-29
2023/01/19 08:55:01;;;;;;;78.43;57.43;;;12.60;99.90;;;;;;4592723;19;20334;-30
2023/01/19 08:56:35;;;;;;;73.20;54.73;;;12.60;99.90;;;;;;4593296;19;20017;-30
2023/01/19 08:58:07;;;;;;;74.27;51.33;;;12.60;99.90;;;;;;4592663;19;20015;-29
2023/01/19 08:59:38;;;;;;;73.93;50.45;;;12.60;99.90;;;;;;4592582;19;20011;-28
2023/01/19 09:01:13;;;;;;;80.20;53.22;;;12.60;99.90;;;;;;4592997;19;20358;-29
2023/01/19 09:02:45;;;;;;;86.27;58.37;;;12.50;99.90;;;;;;4592838;19;20014;-29
2023/01/19 09:04:18;;;;;;;83.13;55.97;;;12.50;99.90;;;;;;4591975;19;20010;-28
2023/01/19 09:05:50;;;;;;;86.37;57.30;;;12.50;99.90;;;;;;4592280;19;20007;-28
2023/01/19 09:07:23;;;;;;;90.23;60.10;;;12.50;99.90;;;;;;4591725;19;20010;-29
2023/01/19 09:08:56;;;;;;;87.80;59.42;;;12.50;99.90;;;;;;4591386;19;20017;-29
2023/01/19 09:10:34;;;;;;;91.27;60.33;;;12.60;99.90;;;;;;4592567;19;20034;-29
2023/01/19 09:12:06;;;;;;;89.50;58.53;;;12.60;99.90;;;;;;4591759;19;20418;-29
2023/01/19 09:13:40;;;;;;;91.10;57.90;;;12.60;99.90;;;;;;4589465;19;20036;-29
2023/01/19 09:15:12;;;;;;;82.77;54.03;;;12.60;99.90;;;;;;4590271;19;20354;-29
2023/01/19 09:16:44;;;;;;;84.50;53.70;;;12.60;99.90;;;;;;4591464;19;20488;-29
2023/01/19 09:18:17;;;;;;;81.78;52.75;;;12.60;99.90;;;;;;4591717;19;20066;-30
2023/01/19 09:19:48;;;;;;;82.93;54.47;;;12.70;99.90;;;;;;4591233;19;20357;-30
2023/01/19 09:21:20;;;;;;;88.63;53.90;;;12.60;99.90;;;;;;4591532;19;20038;-29
2023/01/19 09:22:51;;;;;;;87.88;52.35;;;12.60;99.90;;;;;;4592329;19;20462;-30
2023/01/19 09:24:22;;;;;;;85.65;52.42;;;12.70;99.90;;;;;;4589745;19;20015;-28
2023/01/19 09:25:58;;;;;;;;;;;12.70;99.90;;;;;;4591983;19;20518;-28
2023/01/19 09:27:30;;;;;;;90.70;54.07;;;12.60;99.90;;;;;;4592031;19;19974;-28
2023/01/19 09:29:01;;;;;;;;;;;12.60;99.90;;;;;;4593010;19;20010;-29
2023/01/19 09:30:34;;;;;;;88.45;53.38;;;12.60;99.90;;;;;;4591798;19;20391;-29
2023/01/19 09:32:06;;;;;;;88.83;55.23;;;12.70;99.90;;;;;;4590897;19;20016;-29
2023/01/19 09:33:37;;;;;;;89.68;56.90;;;12.70;99.90;;;;;;4591305;19;20388;-29
2023/01/19 09:35:09;;;;;;;91.75;55.92;;;12.70;99.90;;;;;;4591863;19;20472;-29
2023/01/19 09:36:45;;;;;;;90.90;56.17;;;12.70;99.90;;;;;;4591995;19;20014;-29
2023/01/19 09:38:18;;;;;;;90.53;55.37;;;12.70;99.90;;;;;;4592737;19;20033;-29
2023/01/19 09:39:50;;;;;;;94.10;57.20;;;12.60;99.90;;;;;;4592870;19;20017;-29
2023/01/19 09:41:25;;;;;;;96.33;57.53;;;12.60;99.90;;;;;;4592183;19;20033;-30
2023/01/19 09:43:20;;;;;;;95.53;58.10;;;12.60;99.90;;;;;;4590509;19;20029;-29
2023/01/19 09:44:53;;;;;;;95.80;60.13;;;12.60;99.90;;;;;;4589268;19;20014;-28
2023/01/19 09:46:40;;;;;;;97.07;59.03;;;12.60;99.90;;;;;;4589487;19;20010;-30
2023/01/19 09:48:22;;;;;;;93.77;56.27;;;12.60;99.90;;;;;;4589407;19;20558;-30
2023/01/19 09:49:57;;;;;;;95.10;57.53;;;12.60;99.90;;;;;;4590137;19;20015;-29
2023/01/19 09:51:37;;;;;;;113.90;71.23;;;12.60;99.90;;;;;;4588947;19;20021;-29
2023/01/19 09:53:15;;;;;;;126.65;84.68;;;12.60;99.90;;;;;;4589508;19;20655;-29
2023/01/19 09:54:54;;;;;;;121.63;78.73;;;12.60;99.90;;;;;;4589407;19;20019;-29
2023/01/19 09:56:28;;;;;;;112.30;68.70;;;12.60;99.90;;;;;;4589223;19;20551;-30
2023/01/19 09:57:59;;;;;;;112.23;67.90;;;12.60;99.90;;;;;;4589983;19;20007;-30
2023/01/19 09:59:31;;;;;;;;;;;12.60;99.90;;;;;;4590178;19;20007;-29
2023/01/19 10:01:17;;;;;;;104.10;64.13;;;12.60;99.90;;;;;;4589267;19;19922;-29
2023/01/19 10:03:01;;;;;;;101.53;61.37;;;12.60;99.90;;;;;;4589184;19;20021;-30
2023/01/19 10:04:40;;;;;;;100.60;60.87;;;12.60;99.90;;;;;;4588260;19;20055;-30
2023/01/19 10:06:12;;;;;;;98.77;59.80;;;12.60;99.90;;;;;;4590055;19;20381;-30
2023/01/19 10:08:07;;;;;;;93.07;55.87;;;12.50;99.90;;;;;;4588817;19;20010;-29
2023/01/19 10:10:02;;;;;;;98.00;58.77;;;12.50;99.90;;;;;;4589155;19;20481;-29
2023/01/19 10:11:40;;;;;;;96.97;57.97;;;12.50;99.90;;;;;;4588989;19;20134;-29
2023/01/19 10:13:33;;;;;;;100.77;60.20;;;12.50;99.90;;;;;;4588646;19;20086;-29
2023/01/19 10:15:45;;;;;;;100.97;60.47;;;12.60;99.90;;;;;;4588716;19;20022;-29
2023/01/19 10:17:47;;;;;;;107.68;60.97;;;12.50;99.90;;;;;;4588340;19;20493;-29
2023/01/19 10:19:27;;;;;;;108.97;64.23;;;12.50;99.90;;;;;;4588597;19;20029;-29
2023/01/19 10:21:05;;;;;;;108.73;63.93;;;12.50;99.90;;;;;;4589356;19;19999;-29
2023/01/19 10:22:36;;;;;;;104.33;61.50;;;12.50;99.90;;;;;;4588772;19;20388;-30
2023/01/19 10:24:21;;;;;;;104.40;60.57;;;12.50;99.90;;;;;;4587481;19;20019;-29
2023/01/19 10:25:54;;;;;;;106.67;60.80;;;12.50;99.90;;;;;;4587857;19;20010;-28
2023/01/19 10:27:30;;;;;;;108.47;61.90;;;12.50;99.90;;;;;;4588954;19;20016;-29
2023/01/19 10:29:38;;;;;;;106.23;62.57;;;12.50;99.90;;;;;;4589390;19;20010;-30
2023/01/19 10:31:09;;;;;;;115.40;63.93;;;12.50;99.90;;;;;;4588468;19;20014;-31
2023/01/19 10:32:43;;;;;;;101.90;60.25;;;12.50;99.90;;;;;;4588477;19;20014;-29
2023/01/19 10:34:18;;;;;;;105.37;62.37;;;12.50;99.90;;;;;;4588529;19;20014;-29
2023/01/19 10:35:49;;;;;;;104.50;63.17;;;12.50;99.90;;;;;;4589214;19;20101;-30
2023/01/19 10:37:24;;;;;;;101.30;61.77;;;12.50;99.90;;;;;;4589286;19;20088;-29
2023/01/19 10:38:55;;;;;;;106.77;62.50;;;12.50;99.90;;;;;;4588666;19;20050;-30
2023/01/19 10:40:34;;;;;;;102.20;59.65;;;12.40;99.90;;;;;;4589014;19;20544;-29
2023/01/19 10:42:08;;;;;;;105.80;60.60;;;12.50;99.90;;;;;;4588770;19;20019;-30
2023/01/19 10:43:43;;;;;;;103.60;61.03;;;12.40;99.90;;;;;;4588075;19;20006;-30
2023/01/19 10:45:19;;;;;;;116.13;67.83;;;12.50;99.90;;;;;;4588506;19;20014;-30
2023/01/19 10:46:53;;;;;;;105.87;61.63;;;12.40;99.90;;;;;;4587894;19;20014;-30
2023/01/19 10:48:24;;;;;;;106.20;60.77;;;12.50;99.90;;;;;;4588585;19;20560;-29
2023/01/19 10:49:56;;;;;;;;;;;12.50;99.90;;;;;;4589634;19;20334;-29
2023/01/19 10:51:28;;;;;;;112.40;61.80;;;12.40;99.90;;;;;;4587560;19;19978;-30
2023/01/19 10:53:02;;;;;;;110.57;61.53;;;12.40;99.90;;;;;;4588983;19;20014;-30
2023/01/19 10:54:35;;;;;;;111.97;61.13;;;12.40;99.90;;;;;;4588354;19;20011;-29
2023/01/19 10:56:20;;;;;;;109.37;62.10;;;12.40;99.90;;;;;;4588278;19;20007;-30
2023/01/19 10:57:53;;;;;;;118.97;66.17;;;12.40;99.90;;;;;;4588771;19;20015;-29
2023/01/19 10:59:51;;;;;;;116.80;66.50;;;12.40;99.90;;;;;;4588262;19;20047;-29